createdAt,value
2022-11-24T00:00:15.430Z,98113.66
2022-11-24T00:02:42.497Z,98127.22
2022-11-24T00:05:09.499Z,98135.63
2022-11-24T00:07:36.371Z,98130.84
2022-11-24T00:10:03.711Z,98136.22
2022-11-24T00:12:30.549Z,98136.47
2022-11-24T00:14:57.409Z,98134.66
2022-11-24T00:17:24.362Z,98107.50
2022-11-24T00:19:51.192Z,98142.25
2022-11-24T00:22:18.054Z,98140.66
2022-11-24T00:24:44.918Z,98151.03
2022-11-24T00:27:11.764Z,98148.16
2022-11-24T00:29:38.631Z,98155.13
2022-11-24T00:32:06.625Z,98160.25
2022-11-24T00:34:33.913Z,98158.59
2022-11-24T00:37:00.909Z,98162.88
2022-11-24T00:39:27.817Z,98160.88
2022-11-24T00:41:54.857Z,98154.50
2022-11-24T00:44:21.709Z,98163.78
2022-11-24T00:46:48.749Z,98161.06
2022-11-24T00:49:15.776Z,98164.09
2022-11-24T00:51:42.694Z,98157.91
2022-11-24T00:54:09.580Z,98162.00
2022-11-24T00:56:36.410Z,98160.41
2022-11-24T00:59:03.662Z,98163.50
2022-11-24T01:01:33.674Z,98163.50
2022-11-24T01:04:03.721Z,98170.91
2022-11-24T01:06:30.790Z,98167.53
2022-11-24T01:08:58.039Z,98173.16
2022-11-24T01:11:52.641Z,98170.66
2022-11-24T01:14:19.931Z,98178.97
2022-11-24T01:16:46.826Z,98185.75
2022-11-24T01:19:13.759Z,98178.78
2022-11-24T01:21:40.668Z,98181.66
2022-11-24T01:24:07.554Z,98145.63
2022-11-24T01:26:34.404Z,98179.78
2022-11-24T01:29:01.394Z,98183.28
2022-11-24T01:31:28.465Z,98188.34
2022-11-24T01:33:55.476Z,98187.38
2022-11-24T01:36:22.436Z,98191.66
2022-11-24T01:38:49.302Z,98189.84
2022-11-24T01:41:23.680Z,98192.75
2022-11-24T01:43:52.208Z,98191.34
2022-11-24T01:46:29.334Z,98188.66
2022-11-24T01:49:06.262Z,98195.06
2022-11-24T01:51:34.698Z,98185.84
2022-11-24T01:54:10.074Z,98201.38
2022-11-24T01:56:38.095Z,98192.97
2022-11-24T01:59:05.352Z,98199.03
2022-11-24T02:01:32.381Z,98200.94
2022-11-24T02:03:59.948Z,98195.25
2022-11-24T02:06:28.187Z,98195.88
2022-11-24T02:08:59.229Z,98191.34
2022-11-24T02:11:28.327Z,98195.34
2022-11-24T02:13:55.215Z,98188.59
2022-11-24T02:16:22.181Z,98190.88
2022-11-24T02:18:49.139Z,98186.88
2022-11-24T02:21:16.233Z,98200.84
2022-11-24T02:23:57.369Z,98198.34
2022-11-24T02:26:41.890Z,98204.75
2022-11-24T02:29:10.105Z,98169.78
2022-11-24T02:31:37.156Z,98201.56
2022-11-24T02:34:04.008Z,98199.94
2022-11-24T02:36:31.030Z,98196.75
2022-11-24T02:38:57.970Z,98192.25
2022-11-24T02:41:25.383Z,98178.47
2022-11-24T02:43:55.264Z,98195.16
2022-11-24T02:46:22.365Z,98199.75
2022-11-24T02:48:49.362Z,98200.06
2022-11-24T02:51:16.262Z,98194.94
2022-11-24T02:53:43.126Z,98202.56
2022-11-24T02:56:10.038Z,98201.75
2022-11-24T02:58:37.074Z,98196.94
2022-11-24T03:01:04.059Z,98204.25
2022-11-24T03:03:31.038Z,98206.94
2022-11-24T03:05:57.919Z,98207.03
2022-11-24T03:08:24.764Z,98203.72
2022-11-24T03:10:51.672Z,98201.66
2022-11-24T03:13:18.570Z,98214.03
2022-11-24T03:15:45.474Z,98212.66
2022-11-24T03:18:12.410Z,98214.72
2022-11-24T03:20:39.339Z,98202.59
2022-11-24T03:23:06.209Z,98211.84
2022-11-24T03:25:33.075Z,98216.59
2022-11-24T03:27:59.967Z,98212.44
2022-11-24T03:30:26.844Z,98210.47
2022-11-24T03:32:53.916Z,98208.06
2022-11-24T03:35:21.385Z,98219.16
2022-11-24T03:37:48.294Z,98218.75
2022-11-24T03:40:15.211Z,98217.84
2022-11-24T03:42:42.077Z,98221.59
2022-11-24T03:45:37.952Z,98216.88
2022-11-24T03:47:56.119Z,98216.41
2022-11-24T03:50:22.957Z,98234.78
2022-11-24T03:52:49.824Z,98227.63
2022-11-24T03:55:16.752Z,98228.31
2022-11-24T03:57:43.624Z,98233.75
2022-11-24T04:00:11.194Z,98244.91
2022-11-24T04:02:38.425Z,98238.56
2022-11-24T04:05:06.031Z,98243.50
2022-11-24T04:07:33.035Z,98249.88
2022-11-24T04:09:59.990Z,98256.72
2022-11-24T04:12:53.252Z,98254.16
2022-11-24T04:15:20.340Z,98251.91
2022-11-24T04:17:47.959Z,98243.91
2022-11-24T04:20:15.560Z,98252.66
2022-11-24T04:22:42.979Z,98258.22
2022-11-24T04:25:10.209Z,98258.34
2022-11-24T04:27:37.344Z,98256.78
2022-11-24T04:30:05.539Z,98261.03
2022-11-24T04:32:32.445Z,98270.41
2022-11-24T04:34:59.301Z,98272.97
2022-11-24T04:37:26.191Z,98277.22
2022-11-24T04:39:55.013Z,98274.47
2022-11-24T04:42:22.064Z,98284.13
2022-11-24T04:44:49.106Z,98274.84
2022-11-24T04:47:22.065Z,98280.78
2022-11-24T04:49:51.966Z,98286.97
2022-11-24T04:52:22.731Z,98283.25
2022-11-24T04:54:49.778Z,98287.88
2022-11-24T04:57:23.784Z,98290.38
2022-11-24T04:59:51.366Z,98302.38
2022-11-24T05:02:18.583Z,98301.84
2022-11-24T05:04:46.159Z,98307.34
2022-11-24T05:07:18.356Z,98297.47
2022-11-24T05:10:05.832Z,98301.25
2022-11-24T05:12:32.796Z,98297.94
2022-11-24T05:15:00.889Z,98303.59
2022-11-24T05:17:35.881Z,98275.38
2022-11-24T05:20:03.017Z,98298.25
2022-11-24T05:22:30.330Z,98295.38
2022-11-24T05:24:57.388Z,98282.44
2022-11-24T05:27:24.261Z,98290.50
2022-11-24T05:29:51.141Z,98296.19
2022-11-24T05:32:18.115Z,98301.66
2022-11-24T05:34:45.034Z,98296.72
2022-11-24T05:37:12.054Z,98300.47
2022-11-24T05:39:39.131Z,98275.88
2022-11-24T05:42:25.870Z,98311.63
2022-11-24T05:44:53.383Z,98317.44
2022-11-24T05:47:20.804Z,98319.66
2022-11-24T05:49:47.857Z,98322.25
2022-11-24T05:52:15.033Z,98329.75
2022-11-24T05:54:42.145Z,98339.41
2022-11-24T05:57:09.088Z,98322.13
2022-11-24T05:59:36.154Z,98338.63
2022-11-24T06:02:03.544Z,98341.63
2022-11-24T06:04:30.686Z,98342.75
2022-11-24T06:06:57.990Z,98346.47
2022-11-24T06:09:25.017Z,98355.44
2022-11-24T06:11:51.873Z,98352.03
2022-11-24T06:14:18.848Z,98358.06
2022-11-24T06:16:45.799Z,98367.78
2022-11-24T06:19:12.795Z,98372.63
2022-11-24T06:21:39.917Z,98370.47
2022-11-24T06:24:07.382Z,98378.53
2022-11-24T06:26:34.286Z,98377.56
2022-11-24T06:29:01.453Z,98377.34
2022-11-24T06:31:28.500Z,98387.66
2022-11-24T06:33:55.630Z,98381.97
2022-11-24T06:36:22.674Z,98383.28
2022-11-24T06:38:49.635Z,98388.97
2022-11-24T06:41:16.663Z,98392.16
2022-11-24T06:43:43.810Z,98389.78
2022-11-24T06:46:11.150Z,98390.16
2022-11-24T06:48:38.495Z,98366.06
2022-11-24T06:51:09.133Z,98371.69
2022-11-24T06:53:39.642Z,98400.59
2022-11-24T06:56:13.837Z,98397.19
2022-11-24T06:58:48.144Z,98407.16
2022-11-24T07:01:25.491Z,98405.03
2022-11-24T07:03:53.290Z,98405.50
2022-11-24T07:06:20.632Z,98409.06
2022-11-24T07:08:47.687Z,98418.16
2022-11-24T07:11:16.511Z,98414.78
2022-11-24T07:13:43.660Z,98380.84
2022-11-24T07:16:16.786Z,98398.94
2022-11-24T07:18:44.531Z,98404.84
2022-11-24T07:21:11.754Z,98420.19
2022-11-24T07:23:38.924Z,98431.22
2022-11-24T07:26:07.107Z,98424.63
2022-11-24T07:28:34.978Z,98396.63
2022-11-24T07:31:08.919Z,98434.25
2022-11-24T07:33:36.051Z,98430.28
2022-11-24T07:36:03.462Z,98433.06
2022-11-24T07:38:31.112Z,98440.22
2022-11-24T07:41:08.514Z,98439.94
2022-11-24T07:43:36.284Z,98438.47
2022-11-24T07:46:04.491Z,98436.88
2022-11-24T07:48:32.170Z,98438.91
2022-11-24T07:51:00.507Z,98445.91
2022-11-24T07:53:27.929Z,98451.41
2022-11-24T07:56:00.538Z,98457.81
2022-11-24T07:58:32.357Z,98454.66
2022-11-24T08:01:00.638Z,98462.50
2022-11-24T08:03:28.017Z,98462.19
2022-11-24T08:06:22.086Z,98461.41
2022-11-24T08:08:43.361Z,98462.25
2022-11-24T08:11:12.375Z,98412.50
2022-11-24T08:13:39.671Z,98460.63
2022-11-24T08:16:15.379Z,98465.16
2022-11-24T08:18:42.448Z,98469.88
2022-11-24T08:21:12.911Z,98471.06
2022-11-24T08:23:39.892Z,98448.97
2022-11-24T08:26:08.967Z,98475.34
2022-11-24T08:28:36.590Z,98443.53
2022-11-24T08:31:08.562Z,98479.16
2022-11-24T08:33:35.625Z,98481.31
2022-11-24T08:36:06.878Z,98471.31
2022-11-24T08:38:33.993Z,98476.91
2022-11-24T08:41:05.412Z,98475.34
2022-11-24T08:43:32.617Z,98480.09
2022-11-24T08:46:01.346Z,98466.28
2022-11-24T08:48:28.714Z,98481.75
2022-11-24T08:50:56.088Z,98441.88
2022-11-24T08:53:23.505Z,98487.84
2022-11-24T08:55:50.463Z,98483.97
2022-11-24T08:58:17.505Z,98483.13
2022-11-24T09:00:44.518Z,98488.28
2022-11-24T09:03:11.972Z,98482.00
2022-11-24T09:05:54.186Z,98483.81
2022-11-24T09:08:21.200Z,98483.81
2022-11-24T09:10:48.120Z,98489.59
2022-11-24T09:13:15.032Z,98486.94
2022-11-24T09:15:42.016Z,98490.91
2022-11-24T09:18:08.983Z,98496.06
2022-11-24T09:20:48.065Z,98469.19
2022-11-24T09:23:15.088Z,98498.31
2022-11-24T09:25:42.045Z,98494.06
2022-11-24T09:28:08.970Z,98493.34
2022-11-24T09:30:35.986Z,98493.03
2022-11-24T09:33:03.278Z,98490.28
2022-11-24T09:35:30.165Z,98487.56
2022-11-24T09:37:57.119Z,98489.56
2022-11-24T09:40:24.126Z,98487.94
2022-11-24T09:43:03.464Z,98490.34
2022-11-24T09:46:07.040Z,98501.72
2022-11-24T09:48:36.668Z,98504.94
2022-11-24T09:51:03.969Z,98495.91
2022-11-24T09:53:44.715Z,98492.75
2022-11-24T09:56:28.591Z,98499.03
2022-11-24T09:59:21.946Z,98475.69
2022-11-24T10:01:49.469Z,98502.56
2022-11-24T10:04:26.555Z,98494.63
2022-11-24T10:06:56.847Z,98492.72
2022-11-24T10:09:25.218Z,98476.38
2022-11-24T10:12:16.870Z,98487.56
2022-11-24T10:14:52.748Z,98498.47
2022-11-24T10:17:55.120Z,98500.66
2022-11-24T10:20:31.238Z,98490.47
2022-11-24T10:23:16.467Z,98494.69
2022-11-24T10:25:59.319Z,98498.97
2022-11-24T10:28:37.849Z,98502.50
2022-11-24T10:31:23.934Z,98493.47
2022-11-24T10:33:51.106Z,98501.72
2022-11-24T10:36:37.237Z,98465.38
2022-11-24T10:39:10.457Z,98493.88
2022-11-24T10:41:42.982Z,98500.59
2022-11-24T10:44:14.128Z,98498.69
2022-11-24T10:46:41.285Z,98501.72
2022-11-24T10:49:08.347Z,98506.53
2022-11-24T10:52:12.940Z,98504.03
2022-11-24T10:55:12.453Z,98508.44
2022-11-24T10:57:40.204Z,98509.56
2022-11-24T11:00:30.332Z,98505.69
2022-11-24T11:03:24.431Z,98507.69
2022-11-24T11:05:56.654Z,98510.44
2022-11-24T11:08:25.709Z,98515.09
2022-11-24T11:11:16.526Z,98521.72
2022-11-24T11:14:32.025Z,98511.44
2022-11-24T11:16:59.011Z,98521.00
2022-11-24T11:19:58.496Z,98519.91
2022-11-24T11:22:26.584Z,98517.97
2022-11-24T11:25:11.737Z,98518.38
2022-11-24T11:27:39.706Z,98521.94
2022-11-24T11:36:09.832Z,98528.78
2022-11-24T11:38:38.057Z,98535.84
2022-11-24T11:41:05.372Z,98540.78
2022-11-24T11:43:34.881Z,98513.06
2022-11-24T11:46:19.791Z,98541.97
2022-11-24T11:48:47.031Z,98537.22
2022-11-24T11:54:53.409Z,98545.50
2022-11-24T11:57:55.685Z,98548.81
2022-11-24T12:00:22.789Z,98545.63
2022-11-24T12:03:17.263Z,98541.66
2022-11-24T12:06:07.730Z,98551.19
2022-11-24T12:11:58.045Z,98541.78
2022-11-24T12:14:59.124Z,98548.88
2022-11-24T12:18:16.985Z,98551.31
2022-11-24T12:21:12.546Z,98552.16
2022-11-24T12:23:48.966Z,98553.34
2022-11-24T12:26:34.786Z,98505.94
2022-11-24T12:29:42.337Z,98547.06
2022-11-24T12:32:47.176Z,98553.72
2022-11-24T12:35:44.128Z,98550.19
2022-11-24T12:38:10.969Z,98552.16
2022-11-24T12:41:39.942Z,98557.69
2022-11-24T12:43:59.480Z,98556.53
2022-11-24T12:46:32.360Z,98551.78
2022-11-24T12:49:04.979Z,98556.56
2022-11-24T12:51:34.166Z,98563.31
2022-11-24T12:54:02.819Z,98566.88
2022-11-24T12:56:36.048Z,98556.53
2022-11-24T12:59:06.063Z,98570.38
2022-11-24T13:01:36.092Z,98571.50
2022-11-24T13:04:11.902Z,98570.28
2022-11-24T13:06:47.463Z,98562.59
2022-11-24T13:09:16.321Z,98565.13
2022-11-24T13:11:44.337Z,98557.09
2022-11-24T13:14:30.033Z,98561.75
2022-11-24T13:19:47.709Z,98572.22
2022-11-24T13:22:35.659Z,98575.16
2022-11-24T13:25:17.844Z,98573.09
2022-11-24T13:27:55.514Z,98584.63
2022-11-24T13:30:34.592Z,98589.34
2022-11-24T13:33:02.612Z,98593.38
2022-11-24T13:35:29.871Z,98574.94
2022-11-24T13:37:56.898Z,98591.00
2022-11-24T13:40:23.863Z,98591.50
2022-11-24T13:43:01.612Z,98598.34
2022-11-24T13:45:41.114Z,98596.84
2022-11-24T13:48:20.657Z,98598.28
2022-11-24T13:50:50.991Z,98595.19
2022-11-24T13:53:40.850Z,98599.88
2022-11-24T13:56:13.658Z,98605.75
2022-11-24T13:58:50.498Z,98610.59
2022-11-24T14:01:20.646Z,98610.16
2022-11-24T14:07:08.237Z,98623.00
2022-11-24T14:09:46.154Z,98628.94
2022-11-24T14:12:20.848Z,98625.00
2022-11-24T14:14:49.158Z,98630.09
2022-11-24T14:17:22.765Z,98634.84
2022-11-24T14:19:51.741Z,98588.41
2022-11-24T14:22:26.868Z,98633.50
2022-11-24T14:25:00.924Z,98634.19
2022-11-24T14:27:29.471Z,98633.84
2022-11-24T14:30:03.141Z,98634.03
2022-11-24T14:32:30.929Z,98651.84
2022-11-24T14:34:58.029Z,98648.94
2022-11-24T14:37:25.071Z,98617.78
2022-11-24T14:39:52.135Z,98638.63
2022-11-24T14:42:19.015Z,98652.69
2022-11-24T14:45:03.884Z,98642.41
2022-11-24T14:47:37.969Z,98655.66
2022-11-24T14:50:15.827Z,98622.66
2022-11-24T14:52:54.148Z,98657.78
2022-11-24T14:55:29.185Z,98661.28
2022-11-24T14:57:56.526Z,98664.00
2022-11-24T15:00:27.176Z,98668.97
2022-11-24T15:03:01.044Z,98655.88
2022-11-24T15:05:52.734Z,98669.28
2022-11-24T15:08:19.739Z,98660.38
2022-11-24T15:10:46.605Z,98667.81
2022-11-24T15:13:18.254Z,98671.13
2022-11-24T15:16:06.920Z,98669.69
2022-11-24T15:18:44.939Z,98670.19
2022-11-24T15:21:18.636Z,98681.34
2022-11-24T15:24:05.976Z,98672.06
2022-11-24T15:26:40.220Z,98676.53
2022-11-24T15:29:10.400Z,98679.00
2022-11-24T15:31:38.572Z,98650.94
2022-11-24T15:34:05.697Z,98681.88
2022-11-24T15:36:33.300Z,98685.16
2022-11-24T15:39:00.274Z,98674.41
2022-11-24T15:41:31.477Z,98690.19
2022-11-24T15:44:01.380Z,98672.47
2022-11-24T15:46:29.269Z,98686.72
2022-11-24T15:48:56.475Z,98690.63
2022-11-24T15:51:25.119Z,98684.53
2022-11-24T15:53:57.096Z,98688.63
2022-11-24T15:56:36.889Z,98693.50
2022-11-24T15:59:04.023Z,98695.72
2022-11-24T16:01:32.355Z,98699.63
2022-11-24T16:04:00.266Z,98696.31
2022-11-24T16:06:27.241Z,98704.88
2022-11-24T16:08:54.299Z,98708.94
2022-11-24T16:11:21.772Z,98709.50
2022-11-24T16:13:52.963Z,98709.53
2022-11-24T16:16:21.723Z,98691.22
2022-11-24T16:18:48.731Z,98714.41
2022-11-24T16:21:15.642Z,98712.28
2022-11-24T16:23:42.666Z,98710.03
2022-11-24T16:26:09.590Z,98713.31
2022-11-24T16:28:36.447Z,98720.97
2022-11-24T16:31:03.599Z,98725.91
2022-11-24T16:33:32.226Z,98721.75
2022-11-24T16:35:59.219Z,98703.69
2022-11-24T16:38:26.163Z,98694.28
2022-11-24T16:40:53.994Z,98732.03
2022-11-24T16:43:20.957Z,98723.88
2022-11-24T16:46:16.139Z,98727.06
2022-11-24T16:48:43.571Z,98733.13
2022-11-24T16:51:10.950Z,98734.75
2022-11-24T16:53:38.188Z,98736.47
2022-11-24T16:56:05.266Z,98736.94
2022-11-24T16:58:32.183Z,98736.50
2022-11-24T17:01:10.480Z,98721.81
2022-11-24T17:03:37.637Z,98719.91
2022-11-24T17:06:11.913Z,98714.34
2022-11-24T17:08:39.679Z,98755.22
2022-11-24T17:11:17.004Z,98752.72
2022-11-24T17:13:44.017Z,98755.66
2022-11-24T17:16:12.344Z,98757.84
2022-11-24T17:18:39.430Z,98741.28
2022-11-24T17:21:09.784Z,98729.66
2022-11-24T17:23:37.147Z,98762.81
2022-11-24T17:26:08.974Z,98758.91
2022-11-24T17:28:36.075Z,98748.53
2022-11-24T17:31:15.707Z,98764.59
2022-11-24T17:33:42.658Z,98768.44
2022-11-24T17:36:09.569Z,98775.25
2022-11-24T17:38:36.937Z,98775.75
2022-11-24T17:41:03.972Z,98769.94
2022-11-24T17:43:30.993Z,98767.22
2022-11-24T17:46:00.924Z,98777.19
2022-11-24T17:48:28.297Z,98766.16
2022-11-24T17:51:12.989Z,98778.22
2022-11-24T17:53:40.701Z,98745.53
2022-11-24T17:56:07.862Z,98747.97
2022-11-24T17:58:39.701Z,98770.94
2022-11-24T18:01:09.671Z,98784.56
2022-11-24T18:03:36.568Z,98786.69
2022-11-24T18:06:07.545Z,98796.22
2022-11-24T18:08:35.224Z,98771.16
2022-11-24T18:11:24.695Z,98797.59
2022-11-24T18:13:59.732Z,98774.94
2022-11-24T18:16:30.055Z,98771.78
2022-11-24T18:19:07.843Z,98799.91
2022-11-24T18:21:35.901Z,98798.19
2022-11-24T18:24:02.727Z,98794.84
2022-11-24T18:26:29.604Z,98794.56
2022-11-24T18:28:56.504Z,98793.31
2022-11-24T18:31:23.475Z,98801.06
2022-11-24T18:33:50.311Z,98786.50
2022-11-24T18:36:18.837Z,98792.00
2022-11-24T18:38:46.023Z,98796.97
2022-11-24T18:41:13.755Z,98796.34
2022-11-24T18:43:40.653Z,98798.47
2022-11-24T18:46:14.891Z,98791.59
2022-11-24T18:48:42.469Z,98783.91
2022-11-24T18:51:14.314Z,98794.47
2022-11-24T18:53:45.814Z,98792.56
2022-11-24T18:56:15.819Z,98797.06
2022-11-24T18:58:43.073Z,98793.06
2022-11-24T19:01:12.741Z,98804.13
2022-11-24T19:03:47.818Z,98816.31
2022-11-24T19:06:17.331Z,98819.50
2022-11-24T19:08:45.137Z,98807.06
2022-11-24T19:11:19.316Z,98827.88
2022-11-24T19:13:47.620Z,98830.91
2022-11-24T19:16:14.782Z,98845.50
2022-11-24T19:18:41.729Z,98828.22
2022-11-24T19:21:08.670Z,98844.38
2022-11-24T19:23:35.559Z,98843.59
2022-11-24T19:26:03.151Z,98813.81
2022-11-24T19:28:30.007Z,98843.91
2022-11-24T19:31:01.356Z,98849.03
2022-11-24T19:33:28.356Z,98857.81
2022-11-24T19:36:02.372Z,98861.09
2022-11-24T19:38:30.526Z,98857.81
2022-11-24T19:41:04.527Z,98854.16
2022-11-24T19:43:31.663Z,98859.44
2022-11-24T19:46:08.408Z,98853.19
2022-11-24T19:48:38.336Z,98856.25
2022-11-24T19:51:06.807Z,98870.00
2022-11-24T19:53:34.572Z,98864.59
2022-11-24T19:56:07.640Z,98867.06
2022-11-24T19:58:34.676Z,98868.47
2022-11-24T20:01:14.476Z,98863.34
2022-11-24T20:03:42.128Z,98860.88
2022-11-24T20:06:10.369Z,98865.91
2022-11-24T20:08:37.677Z,98871.41
2022-11-24T20:11:04.809Z,98871.28
2022-11-24T20:13:32.173Z,98876.28
2022-11-24T20:16:05.754Z,98873.25
2022-11-24T20:18:35.220Z,98872.13
2022-11-24T20:21:09.203Z,98881.88
2022-11-24T20:23:36.143Z,98879.59
2022-11-24T20:26:06.964Z,98884.59
2022-11-24T20:28:33.985Z,98860.78
2022-11-24T20:31:05.273Z,98885.16
2022-11-24T20:33:32.174Z,98859.59
2022-11-24T20:36:13.296Z,98885.78
2022-11-24T20:38:40.499Z,98896.06
2022-11-24T20:41:33.691Z,98891.63
2022-11-24T20:44:03.817Z,98890.06
2022-11-24T20:46:32.141Z,98891.13
2022-11-24T20:48:59.920Z,98892.56
2022-11-24T20:51:31.515Z,98900.41
2022-11-24T20:54:00.535Z,98905.75
2022-11-24T20:56:31.815Z,98903.94
2022-11-24T20:58:58.823Z,98910.06
2022-11-24T21:01:28.221Z,98911.28
2022-11-24T21:03:56.478Z,98921.47
2022-11-24T21:06:23.485Z,98917.00
2022-11-24T21:08:51.017Z,98919.09
2022-11-24T21:11:18.152Z,98928.53
2022-11-24T21:13:45.377Z,98928.94
2022-11-24T21:16:15.936Z,98924.31
2022-11-24T21:18:43.547Z,98927.28
2022-11-24T21:21:10.505Z,98919.88
2022-11-24T21:23:37.403Z,98930.00
2022-11-24T21:26:07.461Z,98930.25
2022-11-24T21:28:37.216Z,98934.25
2022-11-24T21:31:09.627Z,98935.94
2022-11-24T21:33:49.936Z,98938.16
2022-11-24T21:36:18.654Z,98938.59
2022-11-24T21:38:50.412Z,98933.28
2022-11-24T21:41:17.331Z,98935.19
2022-11-24T21:43:44.308Z,98941.03
2022-11-24T21:46:11.480Z,98943.59
2022-11-24T21:48:38.649Z,98938.78
2022-11-24T21:51:07.272Z,98938.00
2022-11-24T21:53:35.628Z,98947.09
2022-11-24T21:56:07.364Z,98944.72
2022-11-24T21:58:34.308Z,98928.16
2022-11-24T22:01:05.797Z,98944.81
2022-11-24T22:03:32.710Z,98950.78
2022-11-24T22:05:59.979Z,98951.38
2022-11-24T22:08:27.888Z,98964.41
2022-11-24T22:10:55.445Z,98962.50
2022-11-24T22:13:22.466Z,98964.81
2022-11-24T22:15:58.187Z,98962.44
2022-11-24T22:18:25.056Z,98965.53
2022-11-24T22:20:55.852Z,98967.34
2022-11-24T22:23:22.712Z,98967.34
2022-11-24T22:25:49.535Z,98971.16
2022-11-24T22:28:16.385Z,98968.03
2022-11-24T22:30:43.239Z,98973.94
2022-11-24T22:33:10.204Z,98976.50
2022-11-24T22:35:37.107Z,98974.44
2022-11-24T22:38:03.969Z,98979.97
2022-11-24T22:40:30.846Z,98972.94
2022-11-24T22:42:58.247Z,98951.72
2022-11-24T22:45:25.223Z,98972.16
2022-11-24T22:47:55.154Z,98985.09
2022-11-24T22:50:22.013Z,98982.47
2022-11-24T22:52:50.189Z,98936.06
2022-11-24T22:55:17.071Z,98983.38
2022-11-24T22:57:48.078Z,98979.84
2022-11-24T23:00:16.356Z,98977.44
2022-11-24T23:02:43.278Z,98980.16
2022-11-24T23:05:10.223Z,98990.31
2022-11-24T23:07:37.124Z,98986.78
2022-11-24T23:10:04.123Z,98957.25
2022-11-24T23:12:30.942Z,98983.25
2022-11-24T23:14:57.915Z,98970.69
2022-11-24T23:17:24.741Z,98990.31
2022-11-24T23:19:51.579Z,98992.19
2022-11-24T23:22:18.450Z,98991.41
2022-11-24T23:24:45.319Z,98999.03
2022-11-24T23:27:12.162Z,98998.06
2022-11-24T23:29:39.939Z,99000.69
2022-11-24T23:32:06.797Z,98970.91
2022-11-24T23:34:33.832Z,99003.31
2022-11-24T23:37:00.913Z,98993.91
2022-11-24T23:39:27.724Z,99007.72
2022-11-24T23:41:54.550Z,98999.75
2022-11-24T23:44:22.153Z,99007.38
2022-11-24T23:46:49.040Z,99006.31
2022-11-24T23:49:15.856Z,99004.19
2022-11-24T23:51:42.822Z,99008.28
2022-11-24T23:56:54.220Z,99020.13
2022-11-24T23:59:22.658Z,99013.97
